sensor_id;sensor_type;location;lat;lon;timestamp;pressure;altitude;pressure_sealevel;temperature;humidity
19210;BME280;9738;51.654;14.238;2022-09-09T00:03:35;100080.31;;;14.91;100.00
19210;BME280;9738;51.654;14.238;2022-09-09T00:06:24;100086.03;;;14.88;100.00
19210;BME280;9738;51.654;14.238;2022-09-09T00:09:04;100085.22;;;14.87;100.00
19210;BME280;9738;51.654;14.238;2022-09-09T00:11:43;100074.44;;;14.87;100.00
19210;BME280;9738;51.654;14.238;2022-09-09T00:14:18;100078.56;;;14.83;100.00
19210;BME280;9738;51.654;14.238;2022-09-09T00:16:57;100073.34;;;14.82;100.00
19210;BME280;9738;51.654;14.238;2022-09-09T00:22:46;100072.78;;;14.86;100.00
19210;BME280;9738;51.654;14.238;2022-09-09T00:25:14;100062.88;;;14.87;100.00
19210;BME280;9738;51.654;14.238;2022-09-09T00:27:48;100057.50;;;14.87;100.00
19210;BME280;9738;51.654;14.238;2022-09-09T00:33:11;100057.22;;;14.82;100.00
19210;BME280;9738;51.654;14.238;2022-09-09T00:35:59;100057.41;;;14.80;100.00
19210;BME280;9738;51.654;14.238;2022-09-09T00:38:48;100064.00;;;14.78;100.00
19210;BME280;9738;51.654;14.238;2022-09-09T00:44:32;100062.06;;;14.72;100.00
19210;BME280;9738;51.654;14.238;2022-09-09T00:58:09;100068.63;;;14.69;100.00
19210;BME280;9738;51.654;14.238;2022-09-09T01:00:42;100073.00;;;14.70;100.00
19210;BME280;9738;51.654;14.238;2022-09-09T01:08:40;100078.41;;;14.70;100.00
19210;BME280;9738;51.654;14.238;2022-09-09T01:14:14;100083.38;;;14.73;100.00
19210;BME280;9738;51.654;14.238;2022-09-09T01:16:45;100086.72;;;14.75;100.00
19210;BME280;9738;51.654;14.238;2022-09-09T01:19:19;100091.09;;;14.76;100.00
19210;BME280;9738;51.654;14.238;2022-09-09T01:22:03;100086.91;;;14.74;100.00
19210;BME280;9738;51.654;14.238;2022-09-09T01:25:01;100098.69;;;14.73;100.00
19210;BME280;9738;51.654;14.238;2022-09-09T01:27:32;100095.78;;;14.74;100.00
19210;BME280;9738;51.654;14.238;2022-09-09T01:29:59;100093.78;;;14.76;100.00
19210;BME280;9738;51.654;14.238;2022-09-09T01:35:26;100090.91;;;14.78;100.00
19210;BME280;9738;51.654;14.238;2022-09-09T01:37:53;100087.53;;;14.76;100.00
19210;BME280;9738;51.654;14.238;2022-09-09T01:40:19;100078.00;;;14.73;100.00
19210;BME280;9738;51.654;14.238;2022-09-09T01:42:45;100084.41;;;14.72;100.00
19210;BME280;9738;51.654;14.238;2022-09-09T01:45:11;100076.34;;;14.72;100.00
19210;BME280;9738;51.654;14.238;2022-09-09T01:47:37;100087.84;;;14.66;100.00
19210;BME280;9738;51.654;14.238;2022-09-09T01:50:04;100083.28;;;14.67;100.00
19210;BME280;9738;51.654;14.238;2022-09-09T01:52:30;100083.28;;;14.67;100.00
19210;BME280;9738;51.654;14.238;2022-09-09T01:54:58;100083.78;;;14.70;100.00
19210;BME280;9738;51.654;14.238;2022-09-09T01:57:30;100088.03;;;14.65;100.00
19210;BME280;9738;51.654;14.238;2022-09-09T02:00:06;100084.03;;;14.60;100.00
19210;BME280;9738;51.654;14.238;2022-09-09T02:02:39;100087.66;;;14.53;100.00
19210;BME280;9738;51.654;14.238;2022-09-09T02:08:17;100076.50;;;14.41;100.00
19210;BME280;9738;51.654;14.238;2022-09-09T02:13:17;100087.88;;;14.43;100.00
19210;BME280;9738;51.654;14.238;2022-09-09T02:15:55;100086.22;;;14.42;100.00
19210;BME280;9738;51.654;14.238;2022-09-09T02:18:27;100087.06;;;14.43;100.00
19210;BME280;9738;51.654;14.238;2022-09-09T02:20:56;100086.22;;;14.42;100.00
19210;BME280;9738;51.654;14.238;2022-09-09T02:23:23;100091.31;;;14.37;100.00
19210;BME280;9738;51.654;14.238;2022-09-09T02:25:51;100093.34;;;14.35;100.00
19210;BME280;9738;51.654;14.238;2022-09-09T02:28:21;100091.50;;;14.36;100.00
19210;BME280;9738;51.654;14.238;2022-09-09T02:30:50;100094.19;;;14.36;100.00
19210;BME280;9738;51.654;14.238;2022-09-09T02:33:25;100088.19;;;14.33;100.00
19210;BME280;9738;51.654;14.238;2022-09-09T02:35:52;100094.72;;;14.31;100.00
19210;BME280;9738;51.654;14.238;2022-09-09T02:38:21;100100.09;;;14.31;100.00
19210;BME280;9738;51.654;14.238;2022-09-09T02:40:48;100091.88;;;14.32;100.00
19210;BME280;9738;51.654;14.238;2022-09-09T02:43:14;100081.97;;;14.33;100.00
19210;BME280;9738;51.654;14.238;2022-09-09T02:45:49;100091.88;;;14.32;100.00
19210;BME280;9738;51.654;14.238;2022-09-09T02:48:21;100085.69;;;14.32;100.00
19210;BME280;9738;51.654;14.238;2022-09-09T02:51:01;100090.03;;;14.33;100.00
19210;BME280;9738;51.654;14.238;2022-09-09T02:53:43;100099.13;;;14.32;100.00
19210;BME280;9738;51.654;14.238;2022-09-09T02:56:16;100096.44;;;14.32;100.00
19210;BME280;9738;51.654;14.238;2022-09-09T02:58:43;100100.09;;;14.31;100.00
19210;BME280;9738;51.654;14.238;2022-09-09T03:01:09;100093.75;;;14.32;100.00
19210;BME280;9738;51.654;14.238;2022-09-09T03:03:35;100102.44;;;14.34;100.00
19210;BME280;9738;51.654;14.238;2022-09-09T03:06:01;100100.78;;;14.33;100.00
19210;BME280;9738;51.654;14.238;2022-09-09T03:08:27;100098.09;;;14.33;100.00
19210;BME280;9738;51.654;14.238;2022-09-09T03:10:58;100099.94;;;14.32;100.00
19210;BME280;9738;51.654;14.238;2022-09-09T03:13:27;100107.81;;;14.34;100.00
19210;BME280;9738;51.654;14.238;2022-09-09T03:15:53;100108.47;;;14.36;100.00
19210;BME280;9738;51.654;14.238;2022-09-09T03:18:18;100103.47;;;14.33;100.00
19210;BME280;9738;51.654;14.238;2022-09-09T03:20:46;100103.66;;;14.31;100.00
19210;BME280;9738;51.654;14.238;2022-09-09T03:23:14;100110.03;;;14.30;100.00
19210;BME280;9738;51.654;14.238;2022-09-09T03:25:46;100103.66;;;14.31;100.00
19210;BME280;9738;51.654;14.238;2022-09-09T03:28:13;100102.97;;;14.29;100.00
19210;BME280;9738;51.654;14.238;2022-09-09T03:30:39;100102.78;;;14.31;100.00
19210;BME280;9738;51.654;14.238;2022-09-09T03:33:04;100101.81;;;14.32;100.00
19210;BME280;9738;51.654;14.238;2022-09-09T03:35:31;100099.38;;;14.37;100.00
19210;BME280;9738;51.654;14.238;2022-09-09T03:37:56;100100.41;;;14.36;100.00
19210;BME280;9738;51.654;14.238;2022-09-09T03:40:22;100104.59;;;14.39;100.00
19210;BME280;9738;51.654;14.238;2022-09-09T03:42:49;100101.06;;;14.38;100.00
19210;BME280;9738;51.654;14.238;2022-09-09T03:45:14;100101.06;;;14.38;100.00
19210;BME280;9738;51.654;14.238;2022-09-09T03:47:40;100103.75;;;14.38;100.00
19210;BME280;9738;51.654;14.238;2022-09-09T03:50:07;100101.81;;;14.32;100.00
19210;BME280;9738;51.654;14.238;2022-09-09T03:52:40;100103.81;;;14.30;100.00
19210;BME280;9738;51.654;14.238;2022-09-09T03:55:07;100098.44;;;14.30;100.00
19210;BME280;9738;51.654;14.238;2022-09-09T03:57:34;100100.50;;;14.28;100.00
19210;BME280;9738;51.654;14.238;2022-09-09T04:00:05;100095.13;;;14.28;100.00
19210;BME280;9738;51.654;14.238;2022-09-09T04:02:33;100091.31;;;14.22;100.00
19210;BME280;9738;51.654;14.238;2022-09-09T04:04:58;100099.56;;;14.21;100.00
19210;BME280;9738;51.654;14.238;2022-09-09T04:07:25;100099.91;;;14.18;100.00
19210;BME280;9738;51.654;14.238;2022-09-09T04:09:53;100105.00;;;14.13;100.00
19210;BME280;9738;51.654;14.238;2022-09-09T04:12:20;100106.00;;;14.12;100.00
19210;BME280;9738;51.654;14.238;2022-09-09T04:14:46;100104.34;;;14.11;100.00
19210;BME280;9738;51.654;14.238;2022-09-09T04:17:12;100109.06;;;14.09;100.00
19210;BME280;9738;51.654;14.238;2022-09-09T04:19:38;100104.91;;;14.06;100.00
19210;BME280;9738;51.654;14.238;2022-09-09T04:22:04;100107.13;;;14.02;100.00
19210;BME280;9738;51.654;14.238;2022-09-09T04:24:30;100110.16;;;13.99;100.00
19210;BME280;9738;51.654;14.238;2022-09-09T04:26:56;100115.91;;;13.96;100.00
19210;BME280;9738;51.654;14.238;2022-09-09T04:29:22;100113.59;;;13.93;100.00
19210;BME280;9738;51.654;14.238;2022-09-09T04:31:48;100128.19;;;13.91;100.00
19210;BME280;9738;51.654;14.238;2022-09-09T04:34:14;100129.41;;;13.88;100.00
19210;BME280;9738;51.654;14.238;2022-09-09T04:36:40;100121.69;;;13.85;100.00
19210;BME280;9738;51.654;14.238;2022-09-09T04:39:07;100121.22;;;13.82;100.00
19210;BME280;9738;51.654;14.238;2022-09-09T04:41:33;100128.97;;;13.76;100.00
19210;BME280;9738;51.654;14.238;2022-09-09T04:43:59;100134.88;;;13.72;100.00
19210;BME280;9738;51.654;14.238;2022-09-09T04:46:26;100122.16;;;13.66;100.00
19210;BME280;9738;51.654;14.238;2022-09-09T04:48:52;100128.94;;;13.62;100.00
19210;BME280;9738;51.654;14.238;2022-09-09T04:51:18;100130.28;;;13.58;100.00
19210;BME280;9738;51.654;14.238;2022-09-09T04:53:44;100128.97;;;13.53;100.00
19210;BME280;9738;51.654;14.238;2022-09-09T04:56:14;100138.41;;;13.49;100.00
19210;BME280;9738;51.654;14.238;2022-09-09T04:58:40;100135.03;;;13.47;100.00
19210;BME280;9738;51.654;14.238;2022-09-09T05:01:19;100135.22;;;13.46;100.00
19210;BME280;9738;51.654;14.238;2022-09-09T05:03:46;100138.09;;;13.44;100.00
19210;BME280;9738;51.654;14.238;2022-09-09T05:06:15;100137.06;;;13.45;100.00
19210;BME280;9738;51.654;14.238;2022-09-09T05:08:42;100144.94;;;13.47;100.00
19210;BME280;9738;51.654;14.238;2022-09-09T05:11:25;100137.06;;;13.45;100.00
19210;BME280;9738;51.654;14.238;2022-09-09T05:13:53;100142.44;;;13.45;100.00
19210;BME280;9738;51.654;14.238;2022-09-09T05:16:20;100128.00;;;13.46;100.00
19210;BME280;9738;51.654;14.238;2022-09-09T05:18:46;100128.66;;;13.48;100.00
19210;BME280;9738;51.654;14.238;2022-09-09T05:21:15;100126.47;;;13.52;100.00
19210;BME280;9738;51.654;14.238;2022-09-09T05:23:41;100126.13;;;13.55;100.00
19210;BME280;9738;51.654;14.238;2022-09-09T05:26:11;100128.25;;;13.60;100.00
19210;BME280;9738;51.654;14.238;2022-09-09T05:28:38;100122.06;;;13.59;100.00
19210;BME280;9738;51.654;14.238;2022-09-09T05:31:06;100124.22;;;13.64;100.00
19210;BME280;9738;51.654;14.238;2022-09-09T05:33:34;100121.81;;;13.69;100.00
19210;BME280;9738;51.654;14.238;2022-09-09T05:36:03;100127.47;;;13.74;100.00
19210;BME280;9738;51.654;14.238;2022-09-09T05:38:31;100129.81;;;13.77;100.00
19210;BME280;9738;51.654;14.238;2022-09-09T05:40:58;100131.13;;;13.81;100.00
19210;BME280;9738;51.654;14.238;2022-09-09T05:43:25;100137.44;;;13.88;100.00
19210;BME280;9738;51.654;14.238;2022-09-09T05:48:32;100144.78;;;13.94;100.00
19210;BME280;9738;51.654;14.238;2022-09-09T05:51:00;100143.03;;;14.01;100.00
19210;BME280;9738;51.654;14.238;2022-09-09T05:53:26;100137.97;;;14.06;100.00
19210;BME280;9738;51.654;14.238;2022-09-09T05:56:07;100146.47;;;14.10;100.00
19210;BME280;9738;51.654;14.238;2022-09-09T05:58:34;100142.88;;;14.18;100.00
19210;BME280;9738;51.654;14.238;2022-09-09T06:01:02;100139.47;;;14.24;100.00
19210;BME280;9738;51.654;14.238;2022-09-09T06:03:28;100141.53;;;14.37;100.00
19210;BME280;9738;51.654;14.238;2022-09-09T06:05:58;100143.31;;;14.44;100.00
19210;BME280;9738;51.654;14.238;2022-09-09T06:08:25;100143.63;;;14.49;100.00
19210;BME280;9738;51.654;14.238;2022-09-09T06:10:51;100157.63;;;14.59;100.00
19210;BME280;9738;51.654;14.238;2022-09-09T06:13:17;100155.50;;;14.70;100.00
19210;BME280;9738;51.654;14.238;2022-09-09T06:15:53;100143.84;;;14.77;100.00
19210;BME280;9738;51.654;14.238;2022-09-09T06:18:19;100149.75;;;14.87;100.00
19210;BME280;9738;51.654;14.238;2022-09-09T06:20:58;100155.03;;;14.96;100.00
19210;BME280;9738;51.654;14.238;2022-09-09T06:23:25;100146.69;;;15.05;100.00
19210;BME280;9738;51.654;14.238;2022-09-09T06:25:51;100154.63;;;15.13;100.00
19210;BME280;9738;51.654;14.238;2022-09-09T06:28:18;100154.34;;;15.23;100.00
19210;BME280;9738;51.654;14.238;2022-09-09T06:30:44;100151.53;;;15.31;100.00
19210;BME280;9738;51.654;14.238;2022-09-09T06:33:11;100154.03;;;15.33;100.00
19210;BME280;9738;51.654;14.238;2022-09-09T06:35:36;100153.75;;;15.43;100.00
19210;BME280;9738;51.654;14.238;2022-09-09T06:38:02;100150.50;;;15.47;100.00
19210;BME280;9738;51.654;14.238;2022-09-09T06:40:29;100157.81;;;15.53;100.00
19210;BME280;9738;51.654;14.238;2022-09-09T06:42:59;100161.59;;;15.59;100.00
19210;BME280;9738;51.654;14.238;2022-09-09T06:45:25;100163.16;;;15.68;100.00
19210;BME280;9738;51.654;14.238;2022-09-09T06:47:54;100169.09;;;15.78;100.00
19210;BME280;9738;51.654;14.238;2022-09-09T06:50:20;100161.06;;;15.85;100.00
19210;BME280;9738;51.654;14.238;2022-09-09T06:52:46;100160.53;;;15.96;100.00
19210;BME280;9738;51.654;14.238;2022-09-09T06:55:13;100159.75;;;16.02;100.00
19210;BME280;9738;51.654;14.238;2022-09-09T06:57:41;100163.81;;;16.13;100.00
19210;BME280;9738;51.654;14.238;2022-09-09T07:00:07;100164.13;;;16.25;100.00
19210;BME280;9738;51.654;14.238;2022-09-09T07:02:34;100160.50;;;16.39;100.00
19210;BME280;9738;51.654;14.238;2022-09-09T07:05:04;100171.13;;;16.47;100.00
19210;BME280;9738;51.654;14.238;2022-09-09T07:07:30;100163.94;;;16.54;100.00
19210;BME280;9738;51.654;14.238;2022-09-09T07:09:56;100166.50;;;16.69;100.00
19210;BME280;9738;51.654;14.238;2022-09-09T07:12:22;100173.63;;;16.77;100.00
19210;BME280;9738;51.654;14.238;2022-09-09T07:14:48;100158.75;;;16.81;100.00
19210;BME280;9738;51.654;14.238;2022-09-09T07:17:14;100168.31;;;16.90;100.00
19210;BME280;9738;51.654;14.238;2022-09-09T07:19:40;100169.19;;;16.97;100.00
19210;BME280;9738;51.654;14.238;2022-09-09T07:22:06;100165.69;;;17.03;100.00
19210;BME280;9738;51.654;14.238;2022-09-09T07:24:33;100163.47;;;17.13;100.00
19210;BME280;9738;51.654;14.238;2022-09-09T07:26:59;100169.53;;;17.28;100.00
19210;BME280;9738;51.654;14.238;2022-09-09T07:29:25;100163.38;;;17.41;100.00
19210;BME280;9738;51.654;14.238;2022-09-09T07:31:51;100163.84;;;17.58;100.00
19210;BME280;9738;51.654;14.238;2022-09-09T07:34:17;100163.69;;;17.79;100.00
19210;BME280;9738;51.654;14.238;2022-09-09T07:36:42;100165.59;;;18.05;100.00
19210;BME280;9738;51.654;14.238;2022-09-09T07:39:11;100162.72;;;18.40;100.00
19210;BME280;9738;51.654;14.238;2022-09-09T07:41:43;100167.91;;;18.55;100.00
19210;BME280;9738;51.654;14.238;2022-09-09T07:44:12;100171.88;;;18.72;100.00
19210;BME280;9738;51.654;14.238;2022-09-09T07:46:38;100175.78;;;18.83;100.00
19210;BME280;9738;51.654;14.238;2022-09-09T07:49:08;100172.84;;;18.98;100.00
19210;BME280;9738;51.654;14.238;2022-09-09T07:51:37;100178.25;;;19.04;100.00
19210;BME280;9738;51.654;14.238;2022-09-09T07:54:07;100179.78;;;19.32;100.00
19210;BME280;9738;51.654;14.238;2022-09-09T07:56:35;100178.50;;;19.48;100.00
19210;BME280;9738;51.654;14.238;2022-09-09T07:59:03;100173.81;;;19.68;100.00
19210;BME280;9738;51.654;14.238;2022-09-09T08:01:34;100170.59;;;19.84;100.00
19210;BME280;9738;51.654;14.238;2022-09-09T08:04:05;100172.16;;;19.67;100.00
19210;BME280;9738;51.654;14.238;2022-09-09T08:06:35;100169.84;;;19.70;100.00
19210;BME280;9738;51.654;14.238;2022-09-09T08:09:02;100177.78;;;19.97;100.00
19210;BME280;9738;51.654;14.238;2022-09-09T08:11:29;100177.41;;;20.25;100.00
19210;BME280;9738;51.654;14.238;2022-09-09T08:13:56;100177.03;;;20.46;100.00
19210;BME280;9738;51.654;14.238;2022-09-09T08:16:30;100189.16;;;20.69;100.00
19210;BME280;9738;51.654;14.238;2022-09-09T08:18:57;100185.16;;;20.90;100.00
19210;BME280;9738;51.654;14.238;2022-09-09T08:21:28;100188.13;;;21.07;100.00
19210;BME280;9738;51.654;14.238;2022-09-09T08:23:55;100182.34;;;21.40;100.00
19210;BME280;9738;51.654;14.238;2022-09-09T08:26:24;100188.72;;;21.64;100.00
19210;BME280;9738;51.654;14.238;2022-09-09T08:28:52;100180.56;;;21.75;100.00
19210;BME280;9738;51.654;14.238;2022-09-09T08:31:27;100177.66;;;21.77;68.34
19210;BME280;9738;51.654;14.238;2022-09-09T08:33:55;100182.38;;;21.81;69.21
19210;BME280;9738;51.654;14.238;2022-09-09T08:36:23;100186.34;;;21.97;69.57
19210;BME280;9738;51.654;14.238;2022-09-09T08:38:51;100185.03;;;22.00;65.15
19210;BME280;9738;51.654;14.238;2022-09-09T08:44:06;100185.75;;;21.95;67.29
19210;BME280;9738;51.654;14.238;2022-09-09T08:50:08;100183.88;;;22.07;65.73
19210;BME280;9738;51.654;14.238;2022-09-09T08:52:51;100182.03;;;22.20;65.22
19210;BME280;9738;51.654;14.238;2022-09-09T08:55:28;100179.47;;;22.36;66.45
19210;BME280;9738;51.654;14.238;2022-09-09T08:58:02;100181.63;;;22.46;64.02
19210;BME280;9738;51.654;14.238;2022-09-09T09:00:40;100181.97;;;22.61;64.56
19210;BME280;9738;51.654;14.238;2022-09-09T09:03:19;100182.09;;;22.66;61.76
19210;BME280;9738;51.654;14.238;2022-09-09T09:06:04;100180.56;;;22.47;62.32
19210;BME280;9738;51.654;14.238;2022-09-09T09:08:37;100181.59;;;22.70;61.74
19210;BME280;9738;51.654;14.238;2022-09-09T09:11:04;100184.00;;;22.66;62.19
19210;BME280;9738;51.654;14.238;2022-09-09T09:16:35;100165.16;;;23.00;63.89
19210;BME280;9738;51.654;14.238;2022-09-09T09:19:04;100165.06;;;23.35;63.28
19210;BME280;9738;51.654;14.238;2022-09-09T09:21:38;100161.72;;;23.44;61.29
19210;BME280;9738;51.654;14.238;2022-09-09T09:24:11;100173.66;;;23.55;61.68
19210;BME280;9738;51.654;14.238;2022-09-09T09:26:42;100171.75;;;23.56;61.04
19210;BME280;9738;51.654;14.238;2022-09-09T09:29:16;100177.72;;;23.41;63.34
19210;BME280;9738;51.654;14.238;2022-09-09T09:31:50;100180.38;;;23.36;59.89
19210;BME280;9738;51.654;14.238;2022-09-09T09:34:17;100185.03;;;23.24;60.68
19210;BME280;9738;51.654;14.238;2022-09-09T09:36:46;100186.81;;;23.06;61.97
19210;BME280;9738;51.654;14.238;2022-09-09T09:39:26;100183.16;;;23.01;62.33
19210;BME280;9738;51.654;14.238;2022-09-09T09:41:53;100189.84;;;23.22;64.01
19210;BME280;9738;51.654;14.238;2022-09-09T09:44:26;100182.97;;;23.31;60.15
19210;BME280;9738;51.654;14.238;2022-09-09T09:47:06;100175.97;;;23.35;61.08
19210;BME280;9738;51.654;14.238;2022-09-09T09:49:32;100186.03;;;23.34;58.91
19210;BME280;9738;51.654;14.238;2022-09-09T09:52:06;100179.34;;;23.13;57.10
19210;BME280;9738;51.654;14.238;2022-09-09T09:54:37;100182.59;;;22.87;59.60
19210;BME280;9738;51.654;14.238;2022-09-09T09:57:14;100176.66;;;22.90;62.05
19210;BME280;9738;51.654;14.238;2022-09-09T09:59:41;100182.47;;;22.93;61.27
19210;BME280;9738;51.654;14.238;2022-09-09T10:02:15;100182.91;;;23.02;63.20
19210;BME280;9738;51.654;14.238;2022-09-09T10:04:42;100172.34;;;23.17;62.49
19210;BME280;9738;51.654;14.238;2022-09-09T10:07:27;100170.16;;;23.43;64.62
19210;BME280;9738;51.654;14.238;2022-09-09T10:09:54;100188.38;;;23.54;59.87
19210;BME280;9738;51.654;14.238;2022-09-09T10:12:37;100182.34;;;23.40;59.41
19210;BME280;9738;51.654;14.238;2022-09-09T10:15:29;100177.31;;;23.20;61.44
19210;BME280;9738;51.654;14.238;2022-09-09T10:18:12;100183.41;;;22.99;59.78
19210;BME280;9738;51.654;14.238;2022-09-09T10:20:52;100191.22;;;22.72;61.38
19210;BME280;9738;51.654;14.238;2022-09-09T10:23:51;100185.06;;;22.53;62.16
19210;BME280;9738;51.654;14.238;2022-09-09T10:30:07;100201.41;;;22.11;64.19
19210;BME280;9738;51.654;14.238;2022-09-09T10:32:53;100209.59;;;21.93;64.35
19210;BME280;9738;51.654;14.238;2022-09-09T10:35:33;100207.41;;;21.72;66.51
19210;BME280;9738;51.654;14.238;2022-09-09T10:43:38;100197.81;;;21.39;68.92
19210;BME280;9738;51.654;14.238;2022-09-09T10:52:01;100211.03;;;21.11;75.65
19210;BME280;9738;51.654;14.238;2022-09-09T10:54:58;100211.03;;;21.11;76.98
19210;BME280;9738;51.654;14.238;2022-09-09T10:57:34;100217.09;;;20.94;78.77
19210;BME280;9738;51.654;14.238;2022-09-09T11:00:06;100221.59;;;20.82;77.65
19210;BME280;9738;51.654;14.238;2022-09-09T11:02:34;100227.69;;;20.77;80.37
19210;BME280;9738;51.654;14.238;2022-09-09T11:05:27;100224.44;;;20.69;76.69
19210;BME280;9738;51.654;14.238;2022-09-09T11:08:01;100231.56;;;20.63;76.80
19210;BME280;9738;51.654;14.238;2022-09-09T11:10:37;100224.75;;;20.54;80.05
19210;BME280;9738;51.654;14.238;2022-09-09T11:13:11;100227.09;;;20.50;82.88
19210;BME280;9738;51.654;14.238;2022-09-09T11:15:44;100222.09;;;20.72;88.62
19210;BME280;9738;51.654;14.238;2022-09-09T11:18:19;100215.56;;;20.98;91.30
19210;BME280;9738;51.654;14.238;2022-09-09T11:20:59;100212.25;;;21.15;87.73
19210;BME280;9738;51.654;14.238;2022-09-09T11:26:04;100202.38;;;21.20;77.50
19210;BME280;9738;51.654;14.238;2022-09-09T11:28:51;100203.38;;;21.26;73.33
19210;BME280;9738;51.654;14.238;2022-09-09T11:31:40;100196.28;;;21.25;72.91
19210;BME280;9738;51.654;14.238;2022-09-09T11:37:08;100200.75;;;21.38;75.11
19210;BME280;9738;51.654;14.238;2022-09-09T11:40:08;100198.13;;;21.61;68.17
19210;BME280;9738;51.654;14.238;2022-09-09T11:42:35;100190.09;;;21.84;66.90
19210;BME280;9738;51.654;14.238;2022-09-09T11:45:30;100183.13;;;21.89;65.53
19210;BME280;9738;51.654;14.238;2022-09-09T11:47:57;100176.78;;;22.06;68.35
19210;BME280;9738;51.654;14.238;2022-09-09T11:52:50;100167.19;;;22.34;67.00
19210;BME280;9738;51.654;14.238;2022-09-09T11:55:32;100177.22;;;22.45;66.96
19210;BME280;9738;51.654;14.238;2022-09-09T12:00:47;100174.25;;;22.58;60.89
19210;BME280;9738;51.654;14.238;2022-09-09T12:08:50;100171.44;;;22.65;62.23
19210;BME280;9738;51.654;14.238;2022-09-09T12:11:28;100165.75;;;22.66;62.64
19210;BME280;9738;51.654;14.238;2022-09-09T12:13:59;100166.69;;;22.84;61.77
19210;BME280;9738;51.654;14.238;2022-09-09T12:21:55;100166.09;;;23.05;58.18
19210;BME280;9738;51.654;14.238;2022-09-09T12:29:42;100162.44;;;23.00;58.93
19210;BME280;9738;51.654;14.238;2022-09-09T12:32:13;100156.59;;;23.08;59.56
19210;BME280;9738;51.654;14.238;2022-09-09T12:34:54;100160.16;;;23.08;57.99
19210;BME280;9738;51.654;14.238;2022-09-09T12:37:33;100151.16;;;23.08;58.19
19210;BME280;9738;51.654;14.238;2022-09-09T12:40:05;100150.06;;;23.20;60.53
19210;BME280;9738;51.654;14.238;2022-09-09T12:42:31;100149.06;;;23.38;57.66
19210;BME280;9738;51.654;14.238;2022-09-09T12:45:00;100141.56;;;23.45;55.47
19210;BME280;9738;51.654;14.238;2022-09-09T12:47:40;100148.72;;;23.35;60.71
19210;BME280;9738;51.654;14.238;2022-09-09T12:50:29;100155.66;;;23.02;56.83
19210;BME280;9738;51.654;14.238;2022-09-09T12:52:58;100144.88;;;22.84;56.85
19210;BME280;9738;51.654;14.238;2022-09-09T12:55:31;100149.75;;;22.70;58.25
19210;BME280;9738;51.654;14.238;2022-09-09T12:58:00;100152.72;;;22.45;57.58
19210;BME280;9738;51.654;14.238;2022-09-09T13:00:30;100152.13;;;22.31;57.82
19210;BME280;9738;51.654;14.238;2022-09-09T13:03:02;100152.38;;;22.30;58.38
19210;BME280;9738;51.654;14.238;2022-09-09T13:05:38;100150.84;;;22.34;60.58
19210;BME280;9738;51.654;14.238;2022-09-09T13:08:12;100154.16;;;22.36;58.88
19210;BME280;9738;51.654;14.238;2022-09-09T13:13:15;100150.31;;;22.13;60.65
19210;BME280;9738;51.654;14.238;2022-09-09T13:16:35;100140.75;;;22.11;61.75
19210;BME280;9738;51.654;14.238;2022-09-09T13:18:37;100131.53;;;22.12;62.95
19210;BME280;9738;51.654;14.238;2022-09-09T13:21:06;100130.53;;;22.06;62.58
19210;BME280;9738;51.654;14.238;2022-09-09T13:23:35;100126.16;;;22.05;62.80
19210;BME280;9738;51.654;14.238;2022-09-09T13:26:06;100122.53;;;22.11;62.05
19210;BME280;9738;51.654;14.238;2022-09-09T13:28:47;100117.69;;;22.13;63.01
19210;BME280;9738;51.654;14.238;2022-09-09T13:31:43;100130.59;;;22.18;62.13
19210;BME280;9738;51.654;14.238;2022-09-09T13:34:11;100133.91;;;22.20;61.91
19210;BME280;9738;51.654;14.238;2022-09-09T13:36:38;100124.44;;;22.23;64.04
19210;BME280;9738;51.654;14.238;2022-09-09T13:39:15;100119.13;;;22.28;65.50
19210;BME280;9738;51.654;14.238;2022-09-09T13:41:44;100126.56;;;22.32;68.05
19210;BME280;9738;51.654;14.238;2022-09-09T13:44:27;100112.13;;;22.32;66.42
19210;BME280;9738;51.654;14.238;2022-09-09T13:47:18;100112.50;;;22.35;68.07
19210;BME280;9738;51.654;14.238;2022-09-09T13:49:45;100111.69;;;22.35;66.13
19210;BME280;9738;51.654;14.238;2022-09-09T13:52:14;100113.91;;;22.38;64.94
19210;BME280;9738;51.654;14.238;2022-09-09T13:54:43;100112.28;;;22.37;64.48
19210;BME280;9738;51.654;14.238;2022-09-09T13:57:20;100119.50;;;22.55;69.25
19210;BME280;9738;51.654;14.238;2022-09-09T13:59:46;100110.38;;;22.73;68.10
19210;BME280;9738;51.654;14.238;2022-09-09T14:02:14;100108.44;;;22.85;70.25
19210;BME280;9738;51.654;14.238;2022-09-09T14:04:40;100107.84;;;22.95;68.76
19210;BME280;9738;51.654;14.238;2022-09-09T14:07:11;100103.63;;;22.87;69.64
19210;BME280;9738;51.654;14.238;2022-09-09T14:09:40;100115.78;;;22.84;70.56
19210;BME280;9738;51.654;14.238;2022-09-09T14:12:10;100117.78;;;22.77;69.18
19210;BME280;9738;51.654;14.238;2022-09-09T14:14:36;100115.44;;;22.81;68.68
19210;BME280;9738;51.654;14.238;2022-09-09T14:17:03;100100.75;;;22.93;69.70
19210;BME280;9738;51.654;14.238;2022-09-09T14:19:29;100101.53;;;23.17;72.16
19210;BME280;9738;51.654;14.238;2022-09-09T14:21:57;100104.75;;;23.43;69.74
19210;BME280;9738;51.654;14.238;2022-09-09T14:24:24;100102.03;;;23.60;67.27
19210;BME280;9738;51.654;14.238;2022-09-09T14:26:50;100109.72;;;23.75;65.51
19210;BME280;9738;51.654;14.238;2022-09-09T14:29:16;100108.63;;;23.76;62.54
19210;BME280;9738;51.654;14.238;2022-09-09T14:31:42;100113.34;;;23.80;59.81
19210;BME280;9738;51.654;14.238;2022-09-09T14:34:08;100110.13;;;24.00;60.98
19210;BME280;9738;51.654;14.238;2022-09-09T14:36:35;100108.81;;;24.03;64.54
19210;BME280;9738;51.654;14.238;2022-09-09T14:39:01;100103.78;;;24.11;62.09